sensor_id;sensor_type;location;lat;lon;timestamp;P1;durP1;ratioP1;P2;durP2;ratioP2
9767;SDS011;4923;52.520;13.494;2022-10-16T00:02:02;3.37;;;2.40;;
9767;SDS011;4923;52.520;13.494;2022-10-16T00:04:49;2.83;;;2.03;;
9767;SDS011;4923;52.520;13.494;2022-10-16T00:07:36;5.20;;;2.20;;
9767;SDS011;4923;52.520;13.494;2022-10-16T00:10:23;1.90;;;1.90;;
9767;SDS011;4923;52.520;13.494;2022-10-16T00:13:12;4.73;;;2.30;;
9767;SDS011;4923;52.520;13.494;2022-10-16T00:15:59;1.63;;;1.53;;
9767;SDS011;4923;52.520;13.494;2022-10-16T00:18:46;2.20;;;2.10;;
9767;SDS011;4923;52.520;13.494;2022-10-16T00:21:34;7.93;;;2.07;;
9767;SDS011;4923;52.520;13.494;2022-10-16T00:24:21;6.73;;;2.03;;
9767;SDS011;4923;52.520;13.494;2022-10-16T00:27:08;3.43;;;1.50;;
9767;SDS011;4923;52.520;13.494;2022-10-16T00:29:56;1.20;;;1.20;;
9767;SDS011;4923;52.520;13.494;2022-10-16T00:32:43;1.70;;;1.70;;
9767;SDS011;4923;52.520;13.494;2022-10-16T00:35:30;2.70;;;2.10;;
9767;SDS011;4923;52.520;13.494;2022-10-16T00:38:17;1.50;;;1.40;;
9767;SDS011;4923;52.520;13.494;2022-10-16T00:41:04;3.03;;;1.77;;
9767;SDS011;4923;52.520;13.494;2022-10-16T00:43:53;1.53;;;1.53;;
9767;SDS011;4923;52.520;13.494;2022-10-16T00:46:42;2.00;;;1.37;;
9767;SDS011;4923;52.520;13.494;2022-10-16T00:49:29;1.37;;;1.37;;
9767;SDS011;4923;52.520;13.494;2022-10-16T00:52:16;1.30;;;1.30;;
9767;SDS011;4923;52.520;13.494;2022-10-16T00:55:04;1.60;;;1.60;;
9767;SDS011;4923;52.520;13.494;2022-10-16T00:57:52;1.40;;;1.30;;
9767;SDS011;4923;52.520;13.494;2022-10-16T01:00:40;1.10;;;1.10;;
9767;SDS011;4923;52.520;13.494;2022-10-16T01:03:29;1.17;;;1.17;;
9767;SDS011;4923;52.520;13.494;2022-10-16T01:06:19;1.27;;;1.27;;
9767;SDS011;4923;52.520;13.494;2022-10-16T01:09:11;7.53;;;2.00;;
9767;SDS011;4923;52.520;13.494;2022-10-16T01:12:04;1.30;;;1.20;;
9767;SDS011;4923;52.520;13.494;2022-10-16T01:14:56;2.00;;;1.20;;
9767;SDS011;4923;52.520;13.494;2022-10-16T01:17:49;1.10;;;1.10;;
9767;SDS011;4923;52.520;13.494;2022-10-16T01:20:42;0.90;;;0.90;;
9767;SDS011;4923;52.520;13.494;2022-10-16T01:23:36;1.00;;;1.00;;
9767;SDS011;4923;52.520;13.494;2022-10-16T01:26:43;1.10;;;1.10;;
9767;SDS011;4923;52.520;13.494;2022-10-16T01:29:44;0.80;;;0.80;;
9767;SDS011;4923;52.520;13.494;2022-10-16T01:32:39;0.90;;;0.90;;
9767;SDS011;4923;52.520;13.494;2022-10-16T01:35:29;1.63;;;1.10;;
9767;SDS011;4923;52.520;13.494;2022-10-16T01:38:21;1.00;;;1.00;;
9767;SDS011;4923;52.520;13.494;2022-10-16T01:41:14;1.17;;;1.17;;
9767;SDS011;4923;52.520;13.494;2022-10-16T01:44:06;1.10;;;1.10;;
9767;SDS011;4923;52.520;13.494;2022-10-16T01:46:58;1.40;;;1.23;;
9767;SDS011;4923;52.520;13.494;2022-10-16T01:49:47;1.40;;;1.40;;
9767;SDS011;4923;52.520;13.494;2022-10-16T01:52:34;1.37;;;1.10;;
9767;SDS011;4923;52.520;13.494;2022-10-16T01:55:26;2.47;;;1.93;;
9767;SDS011;4923;52.520;13.494;2022-10-16T01:58:18;4.07;;;1.50;;
9767;SDS011;4923;52.520;13.494;2022-10-16T02:01:05;1.57;;;1.47;;
9767;SDS011;4923;52.520;13.494;2022-10-16T02:03:58;1.30;;;1.17;;
9767;SDS011;4923;52.520;13.494;2022-10-16T02:06:49;1.70;;;1.60;;
9767;SDS011;4923;52.520;13.494;2022-10-16T02:09:36;1.50;;;1.40;;
9767;SDS011;4923;52.520;13.494;2022-10-16T02:12:25;2.60;;;1.10;;
9767;SDS011;4923;52.520;13.494;2022-10-16T02:15:15;1.37;;;1.37;;
9767;SDS011;4923;52.520;13.494;2022-10-16T02:18:02;1.47;;;1.47;;
9767;SDS011;4923;52.520;13.494;2022-10-16T02:20:53;0.90;;;0.90;;
9767;SDS011;4923;52.520;13.494;2022-10-16T02:23:45;0.90;;;0.90;;
9767;SDS011;4923;52.520;13.494;2022-10-16T02:26:39;1.20;;;1.20;;
9767;SDS011;4923;52.520;13.494;2022-10-16T02:29:29;0.90;;;0.90;;
9767;SDS011;4923;52.520;13.494;2022-10-16T02:32:19;1.00;;;1.00;;
9767;SDS011;4923;52.520;13.494;2022-10-16T02:35:09;1.53;;;1.40;;
9767;SDS011;4923;52.520;13.494;2022-10-16T02:37:58;3.70;;;1.13;;
9767;SDS011;4923;52.520;13.494;2022-10-16T02:40:45;1.60;;;0.90;;
9767;SDS011;4923;52.520;13.494;2022-10-16T02:43:33;1.10;;;1.10;;
9767;SDS011;4923;52.520;13.494;2022-10-16T02:46:20;1.03;;;1.03;;
9767;SDS011;4923;52.520;13.494;2022-10-16T02:49:07;1.43;;;1.30;;
9767;SDS011;4923;52.520;13.494;2022-10-16T02:51:54;1.10;;;1.10;;
9767;SDS011;4923;52.520;13.494;2022-10-16T02:54:42;1.47;;;1.23;;
9767;SDS011;4923;52.520;13.494;2022-10-16T02:57:29;7.20;;;1.13;;
9767;SDS011;4923;52.520;13.494;2022-10-16T03:00:17;0.83;;;0.83;;
9767;SDS011;4923;52.520;13.494;2022-10-16T03:03:04;1.70;;;0.90;;
9767;SDS011;4923;52.520;13.494;2022-10-16T03:05:51;0.90;;;0.90;;
9767;SDS011;4923;52.520;13.494;2022-10-16T03:08:38;0.60;;;0.60;;
9767;SDS011;4923;52.520;13.494;2022-10-16T03:11:26;3.60;;;0.87;;
9767;SDS011;4923;52.520;13.494;2022-10-16T03:14:13;2.27;;;1.03;;
9767;SDS011;4923;52.520;13.494;2022-10-16T03:17:00;1.50;;;0.73;;
9767;SDS011;4923;52.520;13.494;2022-10-16T03:19:47;1.70;;;0.80;;
9767;SDS011;4923;52.520;13.494;2022-10-16T03:22:35;0.90;;;0.90;;
9767;SDS011;4923;52.520;13.494;2022-10-16T03:25:22;0.90;;;0.90;;
9767;SDS011;4923;52.520;13.494;2022-10-16T03:28:11;0.80;;;0.80;;
9767;SDS011;4923;52.520;13.494;2022-10-16T03:30:57;0.83;;;0.80;;
9767;SDS011;4923;52.520;13.494;2022-10-16T03:33:44;1.17;;;1.17;;
9767;SDS011;4923;52.520;13.494;2022-10-16T03:36:31;2.30;;;1.00;;
9767;SDS011;4923;52.520;13.494;2022-10-16T03:39:18;0.93;;;0.80;;
9767;SDS011;4923;52.520;13.494;2022-10-16T03:42:05;0.87;;;0.87;;
9767;SDS011;4923;52.520;13.494;2022-10-16T03:44:54;0.80;;;0.80;;
9767;SDS011;4923;52.520;13.494;2022-10-16T03:47:41;1.30;;;1.20;;
9767;SDS011;4923;52.520;13.494;2022-10-16T03:50:27;1.20;;;1.20;;
9767;SDS011;4923;52.520;13.494;2022-10-16T03:53:14;0.97;;;0.97;;
9767;SDS011;4923;52.520;13.494;2022-10-16T03:56:01;1.10;;;1.03;;
9767;SDS011;4923;52.520;13.494;2022-10-16T03:58:48;1.27;;;1.17;;
9767;SDS011;4923;52.520;13.494;2022-10-16T04:01:37;1.10;;;1.00;;
9767;SDS011;4923;52.520;13.494;2022-10-16T04:04:24;1.87;;;1.77;;
9767;SDS011;4923;52.520;13.494;2022-10-16T04:07:11;0.83;;;0.83;;
9767;SDS011;4923;52.520;13.494;2022-10-16T04:09:57;2.53;;;1.57;;
9767;SDS011;4923;52.520;13.494;2022-10-16T04:12:45;0.90;;;0.90;;
9767;SDS011;4923;52.520;13.494;2022-10-16T04:15:31;0.97;;;0.97;;
9767;SDS011;4923;52.520;13.494;2022-10-16T04:18:20;1.20;;;1.20;;
9767;SDS011;4923;52.520;13.494;2022-10-16T04:21:07;2.37;;;1.40;;
9767;SDS011;4923;52.520;13.494;2022-10-16T04:23:54;1.27;;;1.20;;
9767;SDS011;4923;52.520;13.494;2022-10-16T04:26:41;1.30;;;1.30;;
9767;SDS011;4923;52.520;13.494;2022-10-16T04:29:27;2.67;;;1.10;;
9767;SDS011;4923;52.520;13.494;2022-10-16T04:32:14;4.17;;;0.90;;
9767;SDS011;4923;52.520;13.494;2022-10-16T04:35:03;1.20;;;1.20;;
9767;SDS011;4923;52.520;13.494;2022-10-16T04:37:50;1.47;;;1.37;;
9767;SDS011;4923;52.520;13.494;2022-10-16T04:40:37;1.67;;;1.03;;
9767;SDS011;4923;52.520;13.494;2022-10-16T04:43:24;1.53;;;1.43;;
9767;SDS011;4923;52.520;13.494;2022-10-16T04:46:11;1.10;;;1.10;;
9767;SDS011;4923;52.520;13.494;2022-10-16T04:48:58;2.07;;;0.90;;
9767;SDS011;4923;52.520;13.494;2022-10-16T04:51:47;2.10;;;1.00;;
9767;SDS011;4923;52.520;13.494;2022-10-16T04:54:33;1.47;;;1.40;;
9767;SDS011;4923;52.520;13.494;2022-10-16T04:57:22;1.30;;;1.27;;
9767;SDS011;4923;52.520;13.494;2022-10-16T05:00:10;1.40;;;1.40;;
9767;SDS011;4923;52.520;13.494;2022-10-16T05:02:58;3.20;;;1.20;;
9767;SDS011;4923;52.520;13.494;2022-10-16T05:05:46;0.90;;;0.90;;
9767;SDS011;4923;52.520;13.494;2022-10-16T05:08:34;1.60;;;1.43;;
9767;SDS011;4923;52.520;13.494;2022-10-16T05:11:21;1.23;;;1.07;;
9767;SDS011;4923;52.520;13.494;2022-10-16T05:14:09;2.20;;;1.70;;
9767;SDS011;4923;52.520;13.494;2022-10-16T05:16:56;1.43;;;1.43;;
9767;SDS011;4923;52.520;13.494;2022-10-16T05:19:43;2.57;;;1.27;;
9767;SDS011;4923;52.520;13.494;2022-10-16T05:22:30;1.80;;;1.70;;
9767;SDS011;4923;52.520;13.494;2022-10-16T05:25:19;1.37;;;1.37;;
9767;SDS011;4923;52.520;13.494;2022-10-16T05:28:06;2.33;;;1.30;;
9767;SDS011;4923;52.520;13.494;2022-10-16T05:30:52;1.13;;;1.13;;
9767;SDS011;4923;52.520;13.494;2022-10-16T05:33:40;2.17;;;2.07;;
9767;SDS011;4923;52.520;13.494;2022-10-16T05:36:27;1.33;;;1.33;;
9767;SDS011;4923;52.520;13.494;2022-10-16T05:39:14;7.30;;;1.60;;
9767;SDS011;4923;52.520;13.494;2022-10-16T05:42:03;2.40;;;1.60;;
9767;SDS011;4923;52.520;13.494;2022-10-16T05:44:51;2.03;;;1.50;;
9767;SDS011;4923;52.520;13.494;2022-10-16T05:47:37;3.43;;;1.57;;
9767;SDS011;4923;52.520;13.494;2022-10-16T05:50:25;2.03;;;1.80;;
9767;SDS011;4923;52.520;13.494;2022-10-16T05:53:12;1.67;;;1.57;;
9767;SDS011;4923;52.520;13.494;2022-10-16T05:55:59;1.20;;;1.20;;
9767;SDS011;4923;52.520;13.494;2022-10-16T05:58:48;1.00;;;1.00;;
9767;SDS011;4923;52.520;13.494;2022-10-16T06:01:35;2.20;;;0.93;;
9767;SDS011;4923;52.520;13.494;2022-10-16T06:04:24;1.50;;;1.50;;
9767;SDS011;4923;52.520;13.494;2022-10-16T06:07:12;1.30;;;1.30;;
9767;SDS011;4923;52.520;13.494;2022-10-16T06:09:59;1.23;;;1.13;;
9767;SDS011;4923;52.520;13.494;2022-10-16T06:12:46;1.10;;;1.10;;
9767;SDS011;4923;52.520;13.494;2022-10-16T06:15:34;1.47;;;1.47;;
9767;SDS011;4923;52.520;13.494;2022-10-16T06:18:21;0.90;;;0.90;;
9767;SDS011;4923;52.520;13.494;2022-10-16T06:21:09;1.40;;;1.03;;
9767;SDS011;4923;52.520;13.494;2022-10-16T06:23:58;1.53;;;1.43;;
9767;SDS011;4923;52.520;13.494;2022-10-16T06:26:45;1.47;;;1.17;;
9767;SDS011;4923;52.520;13.494;2022-10-16T06:29:32;0.93;;;0.93;;
9767;SDS011;4923;52.520;13.494;2022-10-16T06:32:20;1.20;;;1.20;;
9767;SDS011;4923;52.520;13.494;2022-10-16T06:35:07;2.10;;;1.23;;
9767;SDS011;4923;52.520;13.494;2022-10-16T06:37:54;1.13;;;1.13;;
9767;SDS011;4923;52.520;13.494;2022-10-16T06:40:41;9.40;;;1.23;;
9767;SDS011;4923;52.520;13.494;2022-10-16T06:43:28;1.50;;;1.50;;
9767;SDS011;4923;52.520;13.494;2022-10-16T06:46:18;0.90;;;0.90;;
9767;SDS011;4923;52.520;13.494;2022-10-16T06:49:07;1.30;;;1.30;;
9767;SDS011;4923;52.520;13.494;2022-10-16T06:51:55;3.73;;;1.17;;
9767;SDS011;4923;52.520;13.494;2022-10-16T06:54:41;1.50;;;1.40;;
9767;SDS011;4923;52.520;13.494;2022-10-16T06:57:28;2.33;;;1.50;;
9767;SDS011;4923;52.520;13.494;2022-10-16T07:00:15;1.40;;;1.40;;
9767;SDS011;4923;52.520;13.494;2022-10-16T07:03:02;1.00;;;1.00;;
9767;SDS011;4923;52.520;13.494;2022-10-16T07:05:51;0.80;;;0.80;;
9767;SDS011;4923;52.520;13.494;2022-10-16T07:08:39;1.17;;;1.17;;
9767;SDS011;4923;52.520;13.494;2022-10-16T07:11:27;1.10;;;1.10;;
9767;SDS011;4923;52.520;13.494;2022-10-16T07:14:15;0.90;;;0.90;;
9767;SDS011;4923;52.520;13.494;2022-10-16T07:17:04;0.87;;;0.87;;
9767;SDS011;4923;52.520;13.494;2022-10-16T07:19:51;1.00;;;0.90;;
9767;SDS011;4923;52.520;13.494;2022-10-16T07:22:40;0.77;;;0.77;;
9767;SDS011;4923;52.520;13.494;2022-10-16T07:25:27;0.90;;;0.77;;
9767;SDS011;4923;52.520;13.494;2022-10-16T07:28:14;0.87;;;0.87;;
9767;SDS011;4923;52.520;13.494;2022-10-16T07:31:01;0.70;;;0.70;;
9767;SDS011;4923;52.520;13.494;2022-10-16T07:33:49;4.80;;;1.13;;
9767;SDS011;4923;52.520;13.494;2022-10-16T07:36:37;0.80;;;0.80;;
9767;SDS011;4923;52.520;13.494;2022-10-16T07:39:25;3.07;;;1.30;;
9767;SDS011;4923;52.520;13.494;2022-10-16T07:42:12;2.40;;;0.80;;
9767;SDS011;4923;52.520;13.494;2022-10-16T07:44:59;1.93;;;0.80;;
9767;SDS011;4923;52.520;13.494;2022-10-16T07:47:46;1.10;;;1.10;;
9767;SDS011;4923;52.520;13.494;2022-10-16T07:50:33;3.70;;;1.77;;
9767;SDS011;4923;52.520;13.494;2022-10-16T07:53:20;0.70;;;0.70;;
9767;SDS011;4923;52.520;13.494;2022-10-16T07:56:08;0.80;;;0.80;;
9767;SDS011;4923;52.520;13.494;2022-10-16T07:58:56;0.80;;;0.80;;
9767;SDS011;4923;52.520;13.494;2022-10-16T08:01:43;1.33;;;1.33;;
9767;SDS011;4923;52.520;13.494;2022-10-16T08:04:30;0.80;;;0.80;;
9767;SDS011;4923;52.520;13.494;2022-10-16T08:07:17;2.00;;;0.70;;
9767;SDS011;4923;52.520;13.494;2022-10-16T08:10:04;8.03;;;0.90;;
9767;SDS011;4923;52.520;13.494;2022-10-16T08:12:53;0.70;;;0.70;;
9767;SDS011;4923;52.520;13.494;2022-10-16T08:15:40;0.70;;;0.63;;
9767;SDS011;4923;52.520;13.494;2022-10-16T08:18:27;1.30;;;1.20;;
9767;SDS011;4923;52.520;13.494;2022-10-16T08:21:14;0.50;;;0.50;;
9767;SDS011;4923;52.520;13.494;2022-10-16T08:24:03;1.13;;;0.60;;
9767;SDS011;4923;52.520;13.494;2022-10-16T08:26:50;2.33;;;0.80;;
9767;SDS011;4923;52.520;13.494;2022-10-16T08:29:40;0.80;;;0.60;;
9767;SDS011;4923;52.520;13.494;2022-10-16T08:32:27;0.60;;;0.60;;
9767;SDS011;4923;52.520;13.494;2022-10-16T08:35:14;1.10;;;0.60;;
9767;SDS011;4923;52.520;13.494;2022-10-16T08:38:02;0.60;;;0.60;;
9767;SDS011;4923;52.520;13.494;2022-10-16T08:40:49;0.90;;;0.90;;
9767;SDS011;4923;52.520;13.494;2022-10-16T08:43:41;1.70;;;0.60;;
9767;SDS011;4923;52.520;13.494;2022-10-16T08:46:43;2.33;;;1.70;;
9767;SDS011;4923;52.520;13.494;2022-10-16T08:49:36;5.27;;;2.13;;
9767;SDS011;4923;52.520;13.494;2022-10-16T08:52:38;2.40;;;1.27;;
9767;SDS011;4923;52.520;13.494;2022-10-16T08:55:32;1.07;;;0.87;;
9767;SDS011;4923;52.520;13.494;2022-10-16T08:58:26;0.60;;;0.60;;
9767;SDS011;4923;52.520;13.494;2022-10-16T09:01:15;1.37;;;0.73;;
9767;SDS011;4923;52.520;13.494;2022-10-16T09:04:20;2.67;;;0.70;;
9767;SDS011;4923;52.520;13.494;2022-10-16T09:07:23;1.00;;;0.90;;
9767;SDS011;4923;52.520;13.494;2022-10-16T09:10:20;0.80;;;0.80;;
9767;SDS011;4923;52.520;13.494;2022-10-16T09:13:18;0.60;;;0.60;;
9767;SDS011;4923;52.520;13.494;2022-10-16T09:16:12;1.23;;;0.60;;
9767;SDS011;4923;52.520;13.494;2022-10-16T09:19:09;1.70;;;0.50;;
9767;SDS011;4923;52.520;13.494;2022-10-16T09:22:08;0.70;;;0.70;;
9767;SDS011;4923;52.520;13.494;2022-10-16T09:25:00;4.20;;;0.67;;
9767;SDS011;4923;52.520;13.494;2022-10-16T09:27:56;0.63;;;0.63;;
9767;SDS011;4923;52.520;13.494;2022-10-16T09:30:43;5.30;;;0.70;;
9767;SDS011;4923;52.520;13.494;2022-10-16T09:33:33;1.00;;;0.50;;
9767;SDS011;4923;52.520;13.494;2022-10-16T09:36:21;0.60;;;0.60;;
9767;SDS011;4923;52.520;13.494;2022-10-16T09:39:14;1.70;;;0.60;;
9767;SDS011;4923;52.520;13.494;2022-10-16T09:42:01;1.43;;;1.07;;
9767;SDS011;4923;52.520;13.494;2022-10-16T09:44:50;1.17;;;0.50;;
9767;SDS011;4923;52.520;13.494;2022-10-16T09:47:39;0.73;;;0.73;;
9767;SDS011;4923;52.520;13.494;2022-10-16T09:50:31;0.63;;;0.63;;
9767;SDS011;4923;52.520;13.494;2022-10-16T09:53:19;0.43;;;0.43;;
9767;SDS011;4923;52.520;13.494;2022-10-16T09:56:10;0.63;;;0.63;;
9767;SDS011;4923;52.520;13.494;2022-10-16T09:59:00;0.53;;;0.53;;
9767;SDS011;4923;52.520;13.494;2022-10-16T10:01:50;0.60;;;0.60;;
9767;SDS011;4923;52.520;13.494;2022-10-16T10:04:41;0.70;;;0.70;;
9767;SDS011;4923;52.520;13.494;2022-10-16T10:07:35;3.17;;;1.00;;
9767;SDS011;4923;52.520;13.494;2022-10-16T10:10:26;0.60;;;0.60;;
9767;SDS011;4923;52.520;13.494;2022-10-16T10:13:18;0.67;;;0.50;;
9767;SDS011;4923;52.520;13.494;2022-10-16T10:16:06;0.50;;;0.50;;
9767;SDS011;4923;52.520;13.494;2022-10-16T10:18:57;0.87;;;0.53;;
9767;SDS011;4923;52.520;13.494;2022-10-16T10:21:45;0.70;;;0.60;;
9767;SDS011;4923;52.520;13.494;2022-10-16T10:24:32;4.07;;;0.67;;
9767;SDS011;4923;52.520;13.494;2022-10-16T10:27:19;0.50;;;0.50;;
9767;SDS011;4923;52.520;13.494;2022-10-16T10:30:16;1.33;;;0.50;;
9767;SDS011;4923;52.520;13.494;2022-10-16T10:33:12;0.43;;;0.43;;
9767;SDS011;4923;52.520;13.494;2022-10-16T10:36:11;0.40;;;0.40;;
9767;SDS011;4923;52.520;13.494;2022-10-16T10:39:11;0.77;;;0.53;;
9767;SDS011;4923;52.520;13.494;2022-10-16T10:42:07;2.47;;;0.50;;
9767;SDS011;4923;52.520;13.494;2022-10-16T10:48:16;0.57;;;0.57;;
9767;SDS011;4923;52.520;13.494;2022-10-16T10:51:08;0.53;;;0.53;;
9767;SDS011;4923;52.520;13.494;2022-10-16T10:54:03;0.53;;;0.53;;
9767;SDS011;4923;52.520;13.494;2022-10-16T10:57:00;0.50;;;0.50;;
9767;SDS011;4923;52.520;13.494;2022-10-16T11:00:00;0.40;;;0.40;;
9767;SDS011;4923;52.520;13.494;2022-10-16T11:02:58;0.87;;;0.50;;
9767;SDS011;4923;52.520;13.494;2022-10-16T11:05:54;0.67;;;0.60;;
9767;SDS011;4923;52.520;13.494;2022-10-16T11:08:45;1.07;;;0.60;;
9767;SDS011;4923;52.520;13.494;2022-10-16T11:11:37;4.87;;;0.60;;
9767;SDS011;4923;52.520;13.494;2022-10-16T11:14:28;0.63;;;0.53;;
9767;SDS011;4923;52.520;13.494;2022-10-16T11:17:18;0.63;;;0.63;;
9767;SDS011;4923;52.520;13.494;2022-10-16T11:20:13;0.50;;;0.50;;
9767;SDS011;4923;52.520;13.494;2022-10-16T11:23:05;4.10;;;0.50;;
9767;SDS011;4923;52.520;13.494;2022-10-16T11:25:59;1.70;;;0.40;;
9767;SDS011;4923;52.520;13.494;2022-10-16T11:28:51;1.33;;;0.50;;
9767;SDS011;4923;52.520;13.494;2022-10-16T11:31:43;0.40;;;0.40;;
9767;SDS011;4923;52.520;13.494;2022-10-16T11:34:34;0.50;;;0.50;;
9767;SDS011;4923;52.520;13.494;2022-10-16T11:37:30;0.90;;;0.40;;
9767;SDS011;4923;52.520;13.494;2022-10-16T11:40:23;0.60;;;0.53;;
9767;SDS011;4923;52.520;13.494;2022-10-16T11:43:15;0.40;;;0.40;;
9767;SDS011;4923;52.520;13.494;2022-10-16T11:46:08;1.10;;;0.40;;
9767;SDS011;4923;52.520;13.494;2022-10-16T11:49:00;1.80;;;0.53;;
9767;SDS011;4923;52.520;13.494;2022-10-16T11:51:56;1.40;;;0.40;;
9767;SDS011;4923;52.520;13.494;2022-10-16T11:54:52;1.03;;;0.50;;
9767;SDS011;4923;52.520;13.494;2022-10-16T11:57:43;2.00;;;0.40;;
9767;SDS011;4923;52.520;13.494;2022-10-16T12:00:35;0.40;;;0.40;;
9767;SDS011;4923;52.520;13.494;2022-10-16T12:03:28;0.50;;;0.50;;
9767;SDS011;4923;52.520;13.494;2022-10-16T12:06:23;0.93;;;0.40;;
9767;SDS011;4923;52.520;13.494;2022-10-16T12:09:21;1.57;;;0.50;;
9767;SDS011;4923;52.520;13.494;2022-10-16T12:12:26;0.40;;;0.40;;
9767;SDS011;4923;52.520;13.494;2022-10-16T12:15:24;1.03;;;0.67;;
9767;SDS011;4923;52.520;13.494;2022-10-16T12:18:20;0.40;;;0.40;;
9767;SDS011;4923;52.520;13.494;2022-10-16T12:21:08;1.90;;;0.40;;
9767;SDS011;4923;52.520;13.494;2022-10-16T12:24:02;0.53;;;0.40;;
9767;SDS011;4923;52.520;13.494;2022-10-16T12:26:50;3.37;;;0.50;;
9767;SDS011;4923;52.520;13.494;2022-10-16T12:29:41;0.50;;;0.50;;
9767;SDS011;4923;52.520;13.494;2022-10-16T12:32:33;0.63;;;0.43;;
9767;SDS011;4923;52.520;13.494;2022-10-16T12:35:22;1.47;;;0.53;;
9767;SDS011;4923;52.520;13.494;2022-10-16T12:38:15;0.93;;;0.47;;
9767;SDS011;4923;52.520;13.494;2022-10-16T12:41:05;1.33;;;0.60;;
9767;SDS011;4923;52.520;13.494;2022-10-16T12:43:55;2.70;;;0.60;;
9767;SDS011;4923;52.520;13.494;2022-10-16T12:46:44;0.47;;;0.30;;
9767;SDS011;4923;52.520;13.494;2022-10-16T12:49:34;0.33;;;0.33;;
9767;SDS011;4923;52.520;13.494;2022-10-16T12:52:26;0.40;;;0.40;;
9767;SDS011;4923;52.520;13.494;2022-10-16T12:55:17;0.50;;;0.50;;
9767;SDS011;4923;52.520;13.494;2022-10-16T12:58:09;0.47;;;0.47;;
9767;SDS011;4923;52.520;13.494;2022-10-16T13:01:10;1.47;;;0.43;;
9767;SDS011;4923;52.520;13.494;2022-10-16T13:04:15;3.07;;;0.40;;
9767;SDS011;4923;52.520;13.494;2022-10-16T13:07:23;0.80;;;0.40;;
9767;SDS011;4923;52.520;13.494;2022-10-16T13:10:25;2.47;;;0.30;;
9767;SDS011;4923;52.520;13.494;2022-10-16T13:13:22;0.40;;;0.40;;
9767;SDS011;4923;52.520;13.494;2022-10-16T13:16:28;0.30;;;0.30;;
9767;SDS011;4923;52.520;13.494;2022-10-16T13:19:24;0.40;;;0.40;;
9767;SDS011;4923;52.520;13.494;2022-10-16T13:22:19;1.60;;;0.30;;
9767;SDS011;4923;52.520;13.494;2022-10-16T13:25:16;0.20;;;0.20;;
9767;SDS011;4923;52.520;13.494;2022-10-16T13:28:10;1.23;;;0.50;;
9767;SDS011;4923;52.520;13.494;2022-10-16T13:30:59;0.83;;;0.40;;
9767;SDS011;4923;52.520;13.494;2022-10-16T13:33:49;0.90;;;0.50;;
9767;SDS011;4923;52.520;13.494;2022-10-16T13:36:44;0.40;;;0.40;;
9767;SDS011;4923;52.520;13.494;2022-10-16T13:39:32;0.30;;;0.30;;
9767;SDS011;4923;52.520;13.494;2022-10-16T13:42:21;0.40;;;0.40;;
9767;SDS011;4923;52.520;13.494;2022-10-16T13:45:19;1.50;;;0.30;;
9767;SDS011;4923;52.520;13.494;2022-10-16T13:48:09;3.93;;;0.50;;
9767;SDS011;4923;52.520;13.494;2022-10-16T13:50:58;0.50;;;0.50;;
9767;SDS011;4923;52.520;13.494;2022-10-16T13:54:00;2.33;;;0.50;;
9767;SDS011;4923;52.520;13.494;2022-10-16T13:56:47;0.60;;;0.40;;
9767;SDS011;4923;52.520;13.494;2022-10-16T13:59:36;18.37;;;0.40;;
9767;SDS011;4923;52.520;13.494;2022-10-16T14:02:25;0.30;;;0.30;;
9767;SDS011;4923;52.520;13.494;2022-10-16T14:05:14;0.50;;;0.40;;
9767;SDS011;4923;52.520;13.494;2022-10-16T14:08:01;0.33;;;0.33;;
9767;SDS011;4923;52.520;13.494;2022-10-16T14:10:52;6.43;;;0.60;;
9767;SDS011;4923;52.520;13.494;2022-10-16T14:13:43;0.40;;;0.40;;
9767;SDS011;4923;52.520;13.494;2022-10-16T14:16:32;0.30;;;0.30;;
9767;SDS011;4923;52.520;13.494;2022-10-16T14:19:20;0.30;;;0.30;;
9767;SDS011;4923;52.520;13.494;2022-10-16T14:22:18;0.40;;;0.40;;
9767;SDS011;4923;52.520;13.494;2022-10-16T14:25:20;0.33;;;0.33;;
9767;SDS011;4923;52.520;13.494;2022-10-16T14:28:17;1.17;;;0.40;;
9767;SDS011;4923;52.520;13.494;2022-10-16T14:31:19;1.23;;;0.33;;
9767;SDS011;4923;52.520;13.494;2022-10-16T14:34:25;0.50;;;0.50;;
9767;SDS011;4923;52.520;13.494;2022-10-16T14:37:14;0.30;;;0.30;;
9767;SDS011;4923;52.520;13.494;2022-10-16T14:40:11;5.00;;;0.50;;
9767;SDS011;4923;52.520;13.494;2022-10-16T14:43:02;2.10;;;0.40;;
9767;SDS011;4923;52.520;13.494;2022-10-16T14:45:52;0.30;;;0.30;;
9767;SDS011;4923;52.520;13.494;2022-10-16T14:48:41;2.23;;;0.40;;
9767;SDS011;4923;52.520;13.494;2022-10-16T14:51:30;0.40;;;0.40;;
9767;SDS011;4923;52.520;13.494;2022-10-16T14:54:17;0.73;;;0.50;;
9767;SDS011;4923;52.520;13.494;2022-10-16T14:57:05;0.43;;;0.43;;
9767;SDS011;4923;52.520;13.494;2022-10-16T15:00:00;0.40;;;0.40;;
9767;SDS011;4923;52.520;13.494;2022-10-16T15:02:48;2.93;;;0.50;;
9767;SDS011;4923;52.520;13.494;2022-10-16T15:05:36;0.60;;;0.60;;
9767;SDS011;4923;52.520;13.494;2022-10-16T15:08:23;2.70;;;0.40;;
9767;SDS011;4923;52.520;13.494;2022-10-16T15:11:10;1.13;;;0.60;;
9767;SDS011;4923;52.520;13.494;2022-10-16T15:14:01;0.50;;;0.50;;
9767;SDS011;4923;52.520;13.494;2022-10-16T15:16:50;0.40;;;0.40;;
9767;SDS011;4923;52.520;13.494;2022-10-16T15:19:38;2.43;;;0.50;;
9767;SDS011;4923;52.520;13.494;2022-10-16T15:22:25;0.50;;;0.50;;
9767;SDS011;4923;52.520;13.494;2022-10-16T15:25:15;0.50;;;0.50;;
9767;SDS011;4923;52.520;13.494;2022-10-16T15:28:14;0.50;;;0.50;;
9767;SDS011;4923;52.520;13.494;2022-10-16T15:31:02;0.50;;;0.50;;
9767;SDS011;4923;52.520;13.494;2022-10-16T15:33:51;0.40;;;0.40;;
9767;SDS011;4923;52.520;13.494;2022-10-16T15:36:44;0.50;;;0.50;;
9767;SDS011;4923;52.520;13.494;2022-10-16T15:39:31;1.13;;;0.60;;
9767;SDS011;4923;52.520;13.494;2022-10-16T15:42:18;0.40;;;0.40;;
9767;SDS011;4923;52.520;13.494;2022-10-16T15:45:05;0.87;;;0.50;;
9767;SDS011;4923;52.520;13.494;2022-10-16T15:47:54;1.80;;;0.50;;
9767;SDS011;4923;52.520;13.494;2022-10-16T15:50:43;6.43;;;0.50;;
9767;SDS011;4923;52.520;13.494;2022-10-16T15:53:32;1.33;;;0.50;;
9767;SDS011;4923;52.520;13.494;2022-10-16T15:56:19;1.37;;;0.60;;
9767;SDS011;4923;52.520;13.494;2022-10-16T15:59:07;1.67;;;0.70;;
9767;SDS011;4923;52.520;13.494;2022-10-16T16:01:54;0.57;;;0.57;;
9767;SDS011;4923;52.520;13.494;2022-10-16T16:04:41;0.50;;;0.50;;
9767;SDS011;4923;52.520;13.494;2022-10-16T16:07:28;0.67;;;0.67;;
9767;SDS011;4923;52.520;13.494;2022-10-16T16:10:18;2.10;;;0.60;;
9767;SDS011;4923;52.520;13.494;2022-10-16T16:13:05;0.87;;;0.70;;
9767;SDS011;4923;52.520;13.494;2022-10-16T16:15:53;1.00;;;0.70;;
9767;SDS011;4923;52.520;13.494;2022-10-16T16:18:40;0.80;;;0.80;;
9767;SDS011;4923;52.520;13.494;2022-10-16T16:21:28;0.70;;;0.70;;
9767;SDS011;4923;52.520;13.494;2022-10-16T16:24:15;0.77;;;0.70;;
9767;SDS011;4923;52.520;13.494;2022-10-16T16:27:04;1.03;;;0.70;;
9767;SDS011;4923;52.520;13.494;2022-10-16T16:29:51;2.50;;;1.00;;
9767;SDS011;4923;52.520;13.494;2022-10-16T16:32:38;0.93;;;0.93;;
9767;SDS011;4923;52.520;13.494;2022-10-16T16:35:25;1.00;;;0.90;;
9767;SDS011;4923;52.520;13.494;2022-10-16T16:38:12;1.90;;;1.17;;
9767;SDS011;4923;52.520;13.494;2022-10-16T16:40:59;2.60;;;1.27;;
9767;SDS011;4923;52.520;13.494;2022-10-16T16:44:02;1.17;;;1.07;;
9767;SDS011;4923;52.520;13.494;2022-10-16T16:46:50;1.10;;;1.10;;
9767;SDS011;4923;52.520;13.494;2022-10-16T16:49:37;0.77;;;0.77;;
9767;SDS011;4923;52.520;13.494;2022-10-16T16:52:25;5.97;;;1.33;;
9767;SDS011;4923;52.520;13.494;2022-10-16T16:55:15;5.40;;;1.90;;
9767;SDS011;4923;52.520;13.494;2022-10-16T16:58:02;1.23;;;1.13;;
9767;SDS011;4923;52.520;13.494;2022-10-16T17:00:51;1.03;;;1.00;;
9767;SDS011;4923;52.520;13.494;2022-10-16T17:03:38;1.67;;;1.10;;
9767;SDS011;4923;52.520;13.494;2022-10-16T17:06:29;1.27;;;1.27;;
9767;SDS011;4923;52.520;13.494;2022-10-16T17:09:16;2.17;;;0.80;;
9767;SDS011;4923;52.520;13.494;2022-10-16T17:12:03;2.13;;;1.20;;
9767;SDS011;4923;52.520;13.494;2022-10-16T17:14:50;1.37;;;1.27;;
9767;SDS011;4923;52.520;13.494;2022-10-16T17:17:38;1.90;;;1.47;;
9767;SDS011;4923;52.520;13.494;2022-10-16T17:20:25;4.20;;;1.10;;
9767;SDS011;4923;52.520;13.494;2022-10-16T17:23:13;8.83;;;1.33;;